createdAt,value
2022-12-07T00:01:42.764Z,16.50
2022-12-07T00:04:12.008Z,16.70
2022-12-07T00:14:44.090Z,16.80
2022-12-07T00:17:38.626Z,16.80
2022-12-07T00:20:05.593Z,16.70
2022-12-07T00:22:32.323Z,16.70
2022-12-07T00:24:58.874Z,16.70
2022-12-07T00:35:31.093Z,16.60
2022-12-07T00:37:57.664Z,16.60
2022-12-07T00:40:24.300Z,16.40
2022-12-07T00:42:50.876Z,16.40
2022-12-07T00:45:17.525Z,16.40
2022-12-07T00:51:15.708Z,16.50
2022-12-07T00:53:42.410Z,16.50
2022-12-07T00:56:19.798Z,16.40
2022-12-07T00:58:53.629Z,16.60
2022-12-07T01:01:20.386Z,16.50
2022-12-07T01:03:47.122Z,16.60
2022-12-07T01:06:20.803Z,16.50
2022-12-07T01:08:47.486Z,16.60
2022-12-07T01:11:15.433Z,16.60
2022-12-07T01:13:42.338Z,16.70
2022-12-07T01:16:09.144Z,16.60
2022-12-07T01:18:36.496Z,16.60
2022-12-07T01:21:16.027Z,16.70
2022-12-07T01:23:43.263Z,16.60
2022-12-07T01:26:13.719Z,16.70
2022-12-07T01:28:40.349Z,16.80
2022-12-07T01:31:12.692Z,16.80
2022-12-07T01:33:39.931Z,16.80
2022-12-07T01:36:19.924Z,16.90
2022-12-07T01:49:48.694Z,16.70
2022-12-07T01:52:18.052Z,16.70
2022-12-07T01:54:48.309Z,16.70
2022-12-07T02:13:37.178Z,16.70
2022-12-07T02:16:12.087Z,16.80
2022-12-07T02:18:44.928Z,16.70
2022-12-07T02:21:20.606Z,16.60
2022-12-07T02:23:53.388Z,16.60
2022-12-07T02:31:32.062Z,16.60
2022-12-07T02:34:05.854Z,16.80
2022-12-07T02:39:15.823Z,16.60
2022-12-07T02:41:47.863Z,16.60
2022-12-07T02:44:15.523Z,16.50
2022-12-07T02:46:43.929Z,16.60
2022-12-07T02:49:11.558Z,16.50
2022-12-07T02:51:43.860Z,16.60
2022-12-07T02:54:15.266Z,16.60
2022-12-07T02:56:41.814Z,16.60
2022-12-07T02:59:08.377Z,16.60
2022-12-07T03:01:53.737Z,16.60
2022-12-07T03:04:23.253Z,16.50
2022-12-07T03:06:51.865Z,16.50
2022-12-07T03:09:28.197Z,16.50
2022-12-07T03:12:15.224Z,16.50
2022-12-07T03:14:46.710Z,16.60
2022-12-07T03:17:15.351Z,16.60
2022-12-07T03:19:43.296Z,16.40
2022-12-07T03:22:11.309Z,16.50
2022-12-07T03:24:40.558Z,16.50
2022-12-07T03:27:09.229Z,16.50
2022-12-07T03:29:37.814Z,16.50
2022-12-07T03:32:09.475Z,16.40
2022-12-07T03:34:46.615Z,16.50
2022-12-07T03:37:19.553Z,16.40
2022-12-07T03:39:50.566Z,16.50
2022-12-07T03:42:17.230Z,16.40
2022-12-07T03:44:44.126Z,16.50
2022-12-07T03:47:16.956Z,16.50
2022-12-07T03:49:43.532Z,16.50
2022-12-07T03:52:13.147Z,16.50
2022-12-07T03:54:58.672Z,16.50
2022-12-07T03:57:26.353Z,16.40
2022-12-07T03:59:54.460Z,16.50
2022-12-07T04:02:21.377Z,16.50
2022-12-07T04:04:48.093Z,16.50
2022-12-07T04:21:02.905Z,16.40
2022-12-07T04:23:29.461Z,16.50
2022-12-07T04:25:56.049Z,16.40
2022-12-07T04:31:04.311Z,16.40
2022-12-07T04:33:30.899Z,16.40
2022-12-07T04:35:57.490Z,16.40
2022-12-07T04:38:24.076Z,16.40
2022-12-07T04:40:50.731Z,16.30
2022-12-07T04:43:17.375Z,16.40
2022-12-07T04:45:48.112Z,16.40
2022-12-07T04:48:14.921Z,16.50
2022-12-07T04:50:46.007Z,16.40
2022-12-07T04:53:13.027Z,16.40
2022-12-07T04:55:39.631Z,16.40
2022-12-07T04:58:06.334Z,16.40
2022-12-07T05:00:33.407Z,16.40
2022-12-07T05:03:00.095Z,16.40
2022-12-07T05:05:26.750Z,16.30
2022-12-07T05:07:53.373Z,16.50
2022-12-07T05:10:20.054Z,16.30
2022-12-07T05:12:46.892Z,16.40
2022-12-07T05:15:14.264Z,16.40
2022-12-07T05:17:41.040Z,16.30
2022-12-07T05:20:07.989Z,16.40
2022-12-07T05:22:34.856Z,16.40
2022-12-07T05:25:01.462Z,16.30
2022-12-07T05:27:28.270Z,16.40
2022-12-07T05:29:54.966Z,16.30
2022-12-07T05:32:21.522Z,16.30
2022-12-07T05:34:48.141Z,16.30
2022-12-07T05:39:50.120Z,16.40
2022-12-07T05:42:17.461Z,16.30
2022-12-07T05:44:45.310Z,16.30
2022-12-07T05:47:12.910Z,16.30
2022-12-07T05:49:39.856Z,16.40
2022-12-07T05:52:06.755Z,16.30
2022-12-07T05:54:33.671Z,16.30
2022-12-07T05:57:00.233Z,16.40
2022-12-07T05:59:28.533Z,16.30
2022-12-07T06:01:56.948Z,16.50
2022-12-07T06:04:24.172Z,16.30
2022-12-07T06:06:51.508Z,16.40
2022-12-07T06:09:19.253Z,16.30
2022-12-07T06:12:04.765Z,16.30
2022-12-07T06:14:31.347Z,16.30
2022-12-07T06:16:58.074Z,16.40
2022-12-07T06:19:24.766Z,16.30
2022-12-07T06:21:51.809Z,16.30
2022-12-07T06:24:18.844Z,16.50
2022-12-07T06:29:21.482Z,16.30
2022-12-07T06:31:48.094Z,16.50
2022-12-07T06:34:16.507Z,16.50
2022-12-07T06:39:28.905Z,16.30
2022-12-07T06:41:55.542Z,16.40
2022-12-07T06:44:22.767Z,16.40
2022-12-07T06:46:49.790Z,16.20
2022-12-07T06:49:16.767Z,16.20
2022-12-07T06:51:43.796Z,16.10
2022-12-07T06:54:11.178Z,16.10
2022-12-07T06:56:37.782Z,16.20
2022-12-07T06:59:06.223Z,16.20
2022-12-07T07:01:33.222Z,16.20
2022-12-07T07:04:00.190Z,16.30
2022-12-07T07:11:50.070Z,16.20
2022-12-07T07:14:19.926Z,16.40
2022-12-07T07:16:46.604Z,16.30
2022-12-07T07:19:13.204Z,16.30
2022-12-07T07:21:39.788Z,16.30
2022-12-07T07:24:06.593Z,16.40
2022-12-07T07:26:33.312Z,16.30
2022-12-07T07:29:00.017Z,16.40
2022-12-07T07:31:26.836Z,16.50
2022-12-07T07:33:53.525Z,16.50
2022-12-07T07:36:20.118Z,16.50
2022-12-07T07:38:46.775Z,16.60
2022-12-07T07:41:13.433Z,16.60
2022-12-07T07:43:40.030Z,16.60
2022-12-07T07:46:06.767Z,16.70
2022-12-07T07:51:09.200Z,16.80
2022-12-07T07:53:35.871Z,17.10
2022-12-07T07:56:02.626Z,16.80
2022-12-07T07:58:29.222Z,16.90
2022-12-07T08:00:55.931Z,16.90
2022-12-07T08:03:22.530Z,16.80
2022-12-07T08:05:49.164Z,16.90
2022-12-07T08:08:16.259Z,16.80
2022-12-07T08:10:43.050Z,16.80
2022-12-07T08:13:13.052Z,16.80
2022-12-07T08:15:40.374Z,16.80
2022-12-07T08:18:07.438Z,16.80
2022-12-07T08:20:34.913Z,16.70
2022-12-07T08:23:01.919Z,16.80
2022-12-07T08:25:28.933Z,16.70
2022-12-07T08:49:28.747Z,16.70
2022-12-07T08:51:56.329Z,16.80
2022-12-07T08:54:23.228Z,16.70
2022-12-07T08:56:55.415Z,16.80
2022-12-07T08:59:25.403Z,16.90
2022-12-07T09:01:52.249Z,16.90
2022-12-07T09:04:18.871Z,16.90
2022-12-07T09:06:45.976Z,17.00
2022-12-07T09:09:13.951Z,17.00
2022-12-07T09:11:40.528Z,16.90
2022-12-07T09:14:07.336Z,17.00
2022-12-07T09:16:34.034Z,16.90
2022-12-07T09:19:00.704Z,17.00
2022-12-07T09:21:27.354Z,17.00
2022-12-07T09:23:53.929Z,17.00
2022-12-07T09:26:20.689Z,17.00
2022-12-07T09:28:47.469Z,17.20
2022-12-07T09:31:23.217Z,17.00
2022-12-07T09:33:58.455Z,17.00
2022-12-07T09:36:25.528Z,16.90
2022-12-07T09:38:52.230Z,17.00
2022-12-07T09:41:19.242Z,17.00
2022-12-07T09:43:47.082Z,17.00
2022-12-07T09:46:15.388Z,17.00
2022-12-07T09:48:43.441Z,17.00
2022-12-07T09:51:16.721Z,17.00
2022-12-07T09:53:46.364Z,17.00
2022-12-07T09:56:14.926Z,17.00
2022-12-07T09:58:42.008Z,17.00
2022-12-07T10:01:08.686Z,17.00
2022-12-07T10:03:39.835Z,17.00
2022-12-07T10:06:07.270Z,17.00
2022-12-07T10:08:34.026Z,17.00
2022-12-07T10:11:04.370Z,17.00
2022-12-07T10:13:41.317Z,17.00
2022-12-07T10:16:26.130Z,17.00
2022-12-07T10:18:53.028Z,17.00
2022-12-07T10:21:21.627Z,17.00
2022-12-07T10:24:03.743Z,17.00
2022-12-07T10:26:30.412Z,16.90
2022-12-07T10:28:59.686Z,17.00
2022-12-07T10:31:26.771Z,17.00
2022-12-07T10:34:00.864Z,17.00
2022-12-07T10:36:35.465Z,17.00
2022-12-07T10:39:04.594Z,17.00
2022-12-07T10:41:31.612Z,17.00
2022-12-07T10:43:58.433Z,17.20
2022-12-07T10:46:30.923Z,16.90
2022-12-07T10:49:16.471Z,17.00
2022-12-07T10:51:50.997Z,17.00
2022-12-07T10:54:36.466Z,16.90
2022-12-07T10:57:06.136Z,16.90
2022-12-07T10:59:32.687Z,16.90
2022-12-07T11:02:19.037Z,16.90
2022-12-07T11:04:54.889Z,17.00
2022-12-07T11:07:40.726Z,16.90
2022-12-07T11:10:28.941Z,16.90
2022-12-07T11:12:55.580Z,16.90
2022-12-07T11:15:38.895Z,16.90
2022-12-07T11:18:34.826Z,16.90
2022-12-07T11:21:13.240Z,16.80
2022-12-07T11:23:52.100Z,16.70
2022-12-07T11:28:57.126Z,16.90
2022-12-07T11:31:36.807Z,16.90
2022-12-07T11:34:15.021Z,16.90
2022-12-07T11:36:44.005Z,16.90
2022-12-07T11:39:16.575Z,16.90
2022-12-07T11:41:43.520Z,16.90
2022-12-07T11:44:27.594Z,16.90
2022-12-07T11:47:02.022Z,16.90
2022-12-07T11:49:38.306Z,16.90
2022-12-07T11:52:06.968Z,16.90
2022-12-07T11:54:37.006Z,16.80
2022-12-07T11:57:08.822Z,16.80
2022-12-07T11:59:43.985Z,16.90
2022-12-07T12:02:17.893Z,16.90
2022-12-07T12:05:06.899Z,16.90
2022-12-07T12:10:34.924Z,16.80
2022-12-07T12:16:22.123Z,16.80
2022-12-07T12:19:07.607Z,16.90
2022-12-07T12:21:34.984Z,16.90
2022-12-07T12:24:04.175Z,16.70
2022-12-07T12:26:32.261Z,16.70
2022-12-07T12:29:00.211Z,16.70
2022-12-07T12:31:29.999Z,16.70
2022-12-07T12:34:01.220Z,16.70
2022-12-07T12:36:48.233Z,16.70
2022-12-07T12:39:17.104Z,16.80
2022-12-07T12:41:49.558Z,16.60
2022-12-07T12:44:16.150Z,16.40
2022-12-07T12:46:50.667Z,16.60
2022-12-07T12:49:17.464Z,16.60
2022-12-07T12:51:45.278Z,16.60
2022-12-07T12:54:15.023Z,17.00
2022-12-07T12:56:47.647Z,16.80
2022-12-07T12:59:23.642Z,16.90
2022-12-07T13:02:08.484Z,17.00
2022-12-07T13:04:40.489Z,17.10
2022-12-07T13:07:11.471Z,17.00
2022-12-07T13:09:43.380Z,17.00
2022-12-07T13:12:14.880Z,17.10
2022-12-07T13:14:53.231Z,17.10
2022-12-07T13:17:32.213Z,17.00
2022-12-07T13:20:00.234Z,17.00
2022-12-07T13:22:32.756Z,17.00
2022-12-07T13:25:11.808Z,16.90
2022-12-07T13:27:39.769Z,16.90
2022-12-07T13:30:23.978Z,16.90
2022-12-07T13:32:55.048Z,16.90
2022-12-07T13:35:35.711Z,16.90
2022-12-07T13:38:04.035Z,16.80
2022-12-07T13:40:30.933Z,16.90
2022-12-07T13:43:01.677Z,16.90
2022-12-07T13:45:48.680Z,16.90
2022-12-07T13:48:25.265Z,16.90
2022-12-07T13:50:55.717Z,17.00
2022-12-07T13:53:22.318Z,17.10
2022-12-07T13:55:54.095Z,17.10
2022-12-07T13:58:22.237Z,17.30
2022-12-07T14:00:48.997Z,17.20
2022-12-07T14:03:15.554Z,17.20
2022-12-07T14:05:43.050Z,17.20
2022-12-07T14:08:12.512Z,17.20
2022-12-07T14:10:39.149Z,17.10
2022-12-07T14:13:25.942Z,17.10
2022-12-07T14:15:53.190Z,17.10
2022-12-07T14:18:39.244Z,17.20
2022-12-07T14:21:06.738Z,17.00
2022-12-07T14:23:33.271Z,17.00
2022-12-07T14:26:12.545Z,17.20
2022-12-07T14:28:39.221Z,17.10
2022-12-07T14:31:13.096Z,17.10
2022-12-07T14:33:42.080Z,17.20
2022-12-07T14:36:15.198Z,17.10
2022-12-07T14:38:41.814Z,17.10
2022-12-07T14:41:31.889Z,17.00
2022-12-07T14:44:21.712Z,17.10
2022-12-07T14:46:46.455Z,17.10
2022-12-07T14:54:46.839Z,17.20
2022-12-07T14:57:13.477Z,17.00
2022-12-07T14:59:44.800Z,17.00
2022-12-07T15:02:13.180Z,17.00
2022-12-07T15:04:39.956Z,17.00
2022-12-07T15:07:10.158Z,17.00
2022-12-07T15:09:36.828Z,16.90
2022-12-07T15:12:04.633Z,17.00
2022-12-07T15:14:31.176Z,17.00
2022-12-07T15:17:23.096Z,17.00
2022-12-07T15:19:44.307Z,17.00
2022-12-07T15:22:11.855Z,16.90
2022-12-07T15:24:38.549Z,17.00
2022-12-07T15:27:05.172Z,17.00
2022-12-07T15:29:31.722Z,16.80
2022-12-07T15:31:58.815Z,17.00
2022-12-07T15:34:26.636Z,16.90
2022-12-07T15:36:53.217Z,17.00
2022-12-07T15:39:19.823Z,16.90
2022-12-07T15:41:46.456Z,17.00
2022-12-07T15:44:32.171Z,16.90
2022-12-07T15:46:58.917Z,16.90
2022-12-07T15:49:25.681Z,16.90
2022-12-07T15:51:52.265Z,17.00
2022-12-07T15:54:20.664Z,17.00
2022-12-07T15:56:47.525Z,17.00
2022-12-07T15:59:14.546Z,17.10
2022-12-07T16:01:41.223Z,17.20
2022-12-07T16:04:08.033Z,16.90
2022-12-07T16:06:34.719Z,16.90
2022-12-07T16:09:01.498Z,17.00
2022-12-07T16:11:28.109Z,16.90
2022-12-07T16:13:54.752Z,16.90
2022-12-07T16:16:22.984Z,16.90
2022-12-07T16:18:50.019Z,17.00
2022-12-07T16:21:23.301Z,16.90
2022-12-07T16:23:51.613Z,16.90
2022-12-07T16:26:19.845Z,16.90
2022-12-07T16:28:48.916Z,17.10
2022-12-07T16:31:16.703Z,16.90
2022-12-07T16:33:43.880Z,17.00
2022-12-07T16:36:11.555Z,16.90
2022-12-07T16:38:38.837Z,16.90
2022-12-07T16:41:08.488Z,16.80
2022-12-07T16:43:35.251Z,16.90
2022-12-07T16:46:02.301Z,16.80
2022-12-07T16:48:28.917Z,16.90
2022-12-07T16:50:55.869Z,16.90
2022-12-07T16:53:23.345Z,16.90
2022-12-07T16:55:50.415Z,16.80
2022-12-07T16:58:17.195Z,16.90
2022-12-07T17:00:44.241Z,16.90
2022-12-07T17:03:11.806Z,17.00
2022-12-07T17:05:40.640Z,16.80
2022-12-07T17:08:07.687Z,16.90
2022-12-07T17:10:36.245Z,16.90
2022-12-07T17:13:03.801Z,16.90
2022-12-07T17:15:30.391Z,16.90
2022-12-07T17:17:58.367Z,16.80
2022-12-07T17:20:26.104Z,16.70
2022-12-07T17:22:53.289Z,16.90
2022-12-07T17:25:19.889Z,16.80
2022-12-07T17:27:46.995Z,16.90
2022-12-07T17:30:14.316Z,17.00
2022-12-07T17:32:41.012Z,16.90
2022-12-07T17:35:07.972Z,16.90
2022-12-07T17:37:34.604Z,16.80
2022-12-07T17:40:01.253Z,16.80
2022-12-07T17:42:36.893Z,16.80
2022-12-07T17:45:07.452Z,16.80
2022-12-07T17:47:33.985Z,16.90
2022-12-07T17:50:06.423Z,16.90
2022-12-07T17:52:56.685Z,16.90
2022-12-07T17:55:23.481Z,16.90
2022-12-07T17:57:50.083Z,16.90
2022-12-07T18:00:17.108Z,16.80
2022-12-07T18:02:43.767Z,16.80
2022-12-07T18:05:11.191Z,16.70
2022-12-07T18:07:37.917Z,16.70
2022-12-07T18:10:07.353Z,16.80
2022-12-07T18:12:33.902Z,16.90
2022-12-07T18:15:00.817Z,16.90
2022-12-07T18:17:27.759Z,16.80
2022-12-07T18:19:54.883Z,16.80
2022-12-07T18:22:22.380Z,16.80
2022-12-07T18:24:50.330Z,16.90
2022-12-07T18:27:16.984Z,16.90
2022-12-07T18:29:43.539Z,16.90
2022-12-07T18:32:10.383Z,16.90
2022-12-07T18:34:37.113Z,16.90
2022-12-07T18:37:04.109Z,16.90
2022-12-07T18:39:34.086Z,16.80
2022-12-07T18:42:00.973Z,16.80
2022-12-07T18:44:27.567Z,16.80
2022-12-07T18:46:54.092Z,16.90
2022-12-07T18:49:20.720Z,16.80
2022-12-07T18:51:47.322Z,16.80
2022-12-07T18:54:13.930Z,16.80
2022-12-07T18:56:40.487Z,16.90
2022-12-07T18:59:25.771Z,16.90
2022-12-07T19:01:53.538Z,16.90
2022-12-07T19:04:20.904Z,16.90
2022-12-07T19:06:48.716Z,16.90
2022-12-07T19:09:16.578Z,16.80
2022-12-07T19:11:52.603Z,16.80
2022-12-07T19:14:37.846Z,16.70
2022-12-07T19:17:06.169Z,16.80
2022-12-07T19:19:34.344Z,16.90
2022-12-07T19:22:01.401Z,16.80
2022-12-07T19:24:28.270Z,16.90
2022-12-07T19:26:54.870Z,16.90
2022-12-07T19:29:21.450Z,16.90
2022-12-07T19:31:48.143Z,16.90
2022-12-07T19:34:18.530Z,16.90
2022-12-07T19:36:46.153Z,16.90
2022-12-07T19:39:15.212Z,16.80
2022-12-07T19:41:43.908Z,16.90
2022-12-07T19:44:18.398Z,16.80
2022-12-07T19:46:46.528Z,16.70
2022-12-07T19:49:16.564Z,16.80
2022-12-07T19:51:44.213Z,17.10
2022-12-07T19:54:11.901Z,17.10
2022-12-07T19:56:38.463Z,17.30
2022-12-07T19:59:05.020Z,17.40
2022-12-07T20:01:31.660Z,17.50
2022-12-07T20:03:58.330Z,17.60
2022-12-07T20:06:25.543Z,17.50
2022-12-07T20:08:52.337Z,17.50
2022-12-07T20:11:38.369Z,17.40
2022-12-07T20:14:05.964Z,17.40
2022-12-07T20:16:32.756Z,17.40
2022-12-07T20:18:59.754Z,17.30
2022-12-07T20:21:26.561Z,17.20
2022-12-07T20:23:53.135Z,17.20
2022-12-07T20:26:20.071Z,17.10
2022-12-07T20:28:47.497Z,17.10
2022-12-07T20:31:14.808Z,17.00
2022-12-07T20:33:41.777Z,17.10
2022-12-07T20:36:09.764Z,17.10
2022-12-07T20:38:36.322Z,17.20
2022-12-07T20:41:04.865Z,17.10
2022-12-07T20:43:31.421Z,17.20
2022-12-07T20:45:58.001Z,17.30
2022-12-07T20:48:24.653Z,17.30
2022-12-07T20:50:51.365Z,17.20
2022-12-07T20:53:17.925Z,17.40
2022-12-07T20:55:44.804Z,17.20
2022-12-07T20:58:11.688Z,17.30
2022-12-07T21:00:38.356Z,17.10
2022-12-07T21:03:05.226Z,17.30
2022-12-07T21:05:32.625Z,17.30
2022-12-07T21:07:59.311Z,17.30
2022-12-07T21:10:25.919Z,17.10
2022-12-07T21:12:55.625Z,17.20
2022-12-07T21:15:22.454Z,17.10
2022-12-07T21:17:49.043Z,17.20
2022-12-07T21:20:15.598Z,17.20
2022-12-07T21:22:42.171Z,17.30
2022-12-07T21:25:09.051Z,17.20
2022-12-07T21:27:35.636Z,17.10
2022-12-07T21:30:02.196Z,17.20
2022-12-07T21:32:28.805Z,17.10
2022-12-07T21:34:55.361Z,17.20
2022-12-07T21:37:22.082Z,16.90
2022-12-07T21:39:48.666Z,17.10
2022-12-07T21:42:15.232Z,17.10
2022-12-07T21:44:41.844Z,17.10
2022-12-07T22:06:29.632Z,17.00
2022-12-07T22:11:31.724Z,17.00
2022-12-07T22:14:17.205Z,17.00
2022-12-07T22:24:49.775Z,17.00
2022-12-07T22:27:16.782Z,17.00
2022-12-07T22:29:43.345Z,17.00
2022-12-07T22:32:39.943Z,16.90
2022-12-07T22:34:56.746Z,16.90
2022-12-07T22:37:23.279Z,17.00
2022-12-07T22:39:49.988Z,17.00
2022-12-07T22:42:16.635Z,17.00
2022-12-07T22:44:43.274Z,17.00
2022-12-07T22:47:09.892Z,17.00
2022-12-07T22:49:36.968Z,17.00
2022-12-07T22:52:03.923Z,17.00
2022-12-07T22:54:30.445Z,17.00
2022-12-07T22:56:57.008Z,17.00
2022-12-07T22:59:23.547Z,17.00
2022-12-07T23:01:50.117Z,17.00
2022-12-07T23:04:17.730Z,17.00
2022-12-07T23:09:26.788Z,17.00
2022-12-07T23:12:12.101Z,17.00
2022-12-07T23:14:38.647Z,17.00
2022-12-07T23:17:05.309Z,17.00
2022-12-07T23:19:31.853Z,17.00
2022-12-07T23:21:58.449Z,16.90
2022-12-07T23:24:25.244Z,16.90
2022-12-07T23:26:52.416Z,17.00
2022-12-07T23:29:18.999Z,16.90
2022-12-07T23:31:46.416Z,16.80
2022-12-07T23:34:13.328Z,16.90
2022-12-07T23:36:39.897Z,17.00
2022-12-07T23:39:06.660Z,17.10
2022-12-07T23:41:33.344Z,17.20
2022-12-07T23:44:00.552Z,17.10
2022-12-07T23:46:28.634Z,17.20
2022-12-07T23:48:56.061Z,17.20
2022-12-07T23:51:22.974Z,17.20
2022-12-07T23:53:50.410Z,17.30
2022-12-07T23:56:20.838Z,17.50
2022-12-07T23:58:48.035Z,17.40
